createdAt,value
2023-03-20T00:00:48.677Z,99530.00
2023-03-20T00:02:23.885Z,99529.19
2023-03-20T00:03:57.828Z,99527.50
2023-03-20T00:05:33.497Z,99524.09
2023-03-20T00:07:06.033Z,99519.78
2023-03-20T00:08:39.851Z,99523.31
2023-03-20T00:10:13.262Z,99523.31
2023-03-20T00:11:50.119Z,99525.97
2023-03-20T00:13:28.684Z,99532.09
2023-03-20T00:15:04.946Z,99519.00
2023-03-20T00:16:40.527Z,99519.84
2023-03-20T00:18:18.471Z,99512.00
2023-03-20T00:19:51.584Z,99506.75
2023-03-20T00:21:26.642Z,99515.47
2023-03-20T00:22:59.876Z,99516.34
2023-03-20T00:24:33.148Z,99511.97
2023-03-20T00:26:05.950Z,99514.56
2023-03-20T00:27:39.051Z,99513.72
2023-03-20T00:29:21.673Z,99511.97
2023-03-20T00:30:54.969Z,99508.53
2023-03-20T00:32:27.447Z,99514.66
2023-03-20T00:34:05.888Z,99505.91
2023-03-20T00:35:39.304Z,99506.75
2023-03-20T00:37:14.342Z,99505.00
2023-03-20T00:38:47.866Z,99511.06
2023-03-20T00:40:21.850Z,99505.88
2023-03-20T00:41:58.279Z,99508.44
2023-03-20T00:43:31.857Z,99516.28
2023-03-20T00:45:06.437Z,99513.66
2023-03-20T00:46:41.046Z,99506.69
2023-03-20T00:48:16.885Z,99516.25
2023-03-20T00:49:51.286Z,99513.63
2023-03-20T00:51:24.748Z,99510.13
2023-03-20T00:53:00.859Z,99508.41
2023-03-20T00:54:34.139Z,99503.19
2023-03-20T00:56:08.439Z,99504.91
2023-03-20T00:57:44.144Z,99508.41
2023-03-20T00:59:21.149Z,99498.78
2023-03-20T01:00:55.014Z,99499.66
2023-03-20T01:02:30.054Z,99501.47
2023-03-20T01:04:03.584Z,99495.44
2023-03-20T01:05:37.012Z,99488.53
2023-03-20T01:07:15.342Z,99485.94
2023-03-20T01:08:50.066Z,99486.91
2023-03-20T01:10:34.392Z,99492.19
2023-03-20T01:12:08.611Z,99492.28
2023-03-20T01:13:42.599Z,99486.22
2023-03-20T01:15:21.277Z,99498.47
2023-03-20T01:16:54.871Z,99488.06
2023-03-20T01:18:28.601Z,99497.66
2023-03-20T01:20:00.848Z,99492.47
2023-03-20T01:21:34.074Z,99486.34
2023-03-20T01:23:07.525Z,99493.34
2023-03-20T01:24:42.371Z,99489.03
2023-03-20T01:26:31.589Z,99489.94
2023-03-20T01:28:13.111Z,99481.19
2023-03-20T01:29:46.916Z,99485.53
2023-03-20T01:31:20.906Z,99488.19
2023-03-20T01:32:55.157Z,99486.47
2023-03-20T01:34:29.158Z,99485.59
2023-03-20T01:36:02.079Z,99486.47
2023-03-20T01:37:35.998Z,99480.38
2023-03-20T01:39:11.819Z,99477.78
2023-03-20T01:40:53.662Z,99482.16
2023-03-20T01:42:27.693Z,99484.72
2023-03-20T01:44:11.012Z,99476.88
2023-03-20T01:45:56.056Z,99489.91
2023-03-20T01:47:30.526Z,99481.19
2023-03-20T01:49:30.238Z,99489.03
2023-03-20T01:51:08.213Z,99482.91
2023-03-20T01:52:40.798Z,99483.81
2023-03-20T01:54:17.209Z,99488.19
2023-03-20T01:56:01.568Z,99485.59
2023-03-20T01:57:45.585Z,99483.00
2023-03-20T01:59:23.204Z,99476.03
2023-03-20T02:00:57.267Z,99486.50
2023-03-20T02:02:32.456Z,99482.16
2023-03-20T02:04:09.464Z,99480.38
2023-03-20T02:06:02.988Z,99486.50
2023-03-20T02:08:04.317Z,99482.16
2023-03-20T02:09:36.936Z,99477.81
2023-03-20T02:11:18.064Z,99477.81
2023-03-20T02:12:52.241Z,99480.44
2023-03-20T02:14:34.463Z,99479.59
2023-03-20T02:16:22.177Z,99473.53
2023-03-20T02:18:24.835Z,99472.66
2023-03-20T02:20:07.223Z,99476.19
2023-03-20T02:22:27.863Z,99472.75
2023-03-20T02:24:34.175Z,99474.47
2023-03-20T02:26:27.053Z,99479.72
2023-03-20T02:28:21.800Z,99469.28
2023-03-20T02:30:20.747Z,99472.75
2023-03-20T02:32:25.461Z,99486.66
2023-03-20T02:34:34.091Z,99471.88
2023-03-20T02:36:33.441Z,99479.72
2023-03-20T02:38:27.510Z,99481.47
2023-03-20T02:40:13.317Z,99484.06
2023-03-20T02:41:55.631Z,99476.22
2023-03-20T02:43:36.493Z,99473.63
2023-03-20T02:45:18.890Z,99484.94
2023-03-20T02:47:01.106Z,99479.69
2023-03-20T02:48:40.126Z,99471.00
2023-03-20T02:50:20.171Z,99476.22
2023-03-20T02:52:02.416Z,99477.97
2023-03-20T02:53:49.974Z,99472.75
2023-03-20T02:55:31.918Z,99465.78
2023-03-20T02:57:09.587Z,99467.53
2023-03-20T02:58:50.749Z,99471.00
2023-03-20T03:00:29.815Z,99464.06
2023-03-20T03:02:08.340Z,99453.63
2023-03-20T03:03:48.235Z,99468.44
2023-03-20T03:05:26.724Z,99473.63
2023-03-20T03:07:02.136Z,99474.53
2023-03-20T03:08:39.600Z,99473.63
2023-03-20T03:10:21.750Z,99471.91
2023-03-20T03:11:58.842Z,99473.63
2023-03-20T03:13:37.681Z,99474.53
2023-03-20T03:15:17.641Z,99470.16
2023-03-20T03:16:53.351Z,99468.44
2023-03-20T03:18:27.799Z,99467.56
2023-03-20T03:20:05.759Z,99472.78
2023-03-20T03:21:41.692Z,99469.31
2023-03-20T03:23:22.394Z,99471.91
2023-03-20T03:24:56.706Z,99472.78
2023-03-20T03:26:36.004Z,99471.94
2023-03-20T03:28:17.508Z,99469.28
2023-03-20T03:29:56.074Z,99468.44
2023-03-20T03:31:31.766Z,99467.56
2023-03-20T03:33:17.261Z,99460.63
2023-03-20T03:34:50.821Z,99467.59
2023-03-20T03:36:37.522Z,99459.75
2023-03-20T03:38:29.808Z,99460.63
2023-03-20T03:40:17.744Z,99460.63
2023-03-20T03:41:55.986Z,99455.38
2023-03-20T03:43:35.765Z,99467.59
2023-03-20T03:45:14.546Z,99458.88
2023-03-20T03:46:53.814Z,99458.88
2023-03-20T03:48:32.492Z,99462.38
2023-03-20T03:50:11.901Z,99461.47
2023-03-20T03:51:50.615Z,99459.75
2023-03-20T03:53:27.999Z,99458.00
2023-03-20T03:55:06.075Z,99442.34
2023-03-20T03:56:42.079Z,99458.88
2023-03-20T03:58:20.270Z,99457.13
2023-03-20T03:59:57.699Z,99460.63
2023-03-20T04:01:35.375Z,99447.53
2023-03-20T04:03:10.237Z,99458.00
2023-03-20T04:04:47.199Z,99455.38
2023-03-20T04:06:22.388Z,99463.19
2023-03-20T04:08:00.197Z,99459.72
2023-03-20T04:09:33.711Z,99454.50
2023-03-20T04:11:07.214Z,99462.28
2023-03-20T04:12:45.634Z,99458.84
2023-03-20T04:14:23.244Z,99462.31
2023-03-20T04:15:56.807Z,99465.78
2023-03-20T04:17:32.692Z,99470.09
2023-03-20T04:19:06.888Z,99468.41
2023-03-20T04:20:40.203Z,99465.78
2023-03-20T04:22:13.783Z,99469.28
2023-03-20T04:23:47.550Z,99469.28
2023-03-20T04:25:25.171Z,99470.16
2023-03-20T04:26:59.774Z,99476.25
2023-03-20T04:28:33.683Z,99469.28
2023-03-20T04:30:31.310Z,99473.63
2023-03-20T04:32:33.890Z,99477.97
2023-03-20T04:34:16.574Z,99472.75
2023-03-20T04:36:04.804Z,99483.19
2023-03-20T04:37:38.952Z,99474.50
2023-03-20T04:39:14.040Z,99481.50
2023-03-20T04:40:48.461Z,99482.31
2023-03-20T04:42:21.737Z,99484.06
2023-03-20T04:43:56.650Z,99490.16
2023-03-20T04:45:32.126Z,99491.03
2023-03-20T04:47:06.738Z,99486.69
2023-03-20T04:48:42.732Z,99486.69
2023-03-20T04:50:17.710Z,99486.66
2023-03-20T04:51:50.237Z,99492.75
2023-03-20T04:53:32.864Z,99490.16
2023-03-20T04:55:07.284Z,99491.03
2023-03-20T04:56:40.782Z,99491.03
2023-03-20T04:58:20.986Z,99483.22
2023-03-20T04:59:54.824Z,99489.31
2023-03-20T05:01:30.333Z,99491.03
2023-03-20T05:03:04.107Z,99490.16
2023-03-20T05:04:37.798Z,99493.66
2023-03-20T05:06:11.694Z,99491.91
2023-03-20T05:07:47.584Z,99497.06
2023-03-20T05:09:27.561Z,99479.59
2023-03-20T05:11:02.195Z,99482.97
2023-03-20T05:12:53.937Z,99494.03
2023-03-20T05:14:29.951Z,99484.31
2023-03-20T05:16:21.755Z,99497.13
2023-03-20T05:18:07.741Z,99490.69
2023-03-20T05:19:53.021Z,99500.75
2023-03-20T05:21:49.241Z,99491.53
2023-03-20T05:23:45.278Z,99500.75
2023-03-20T05:25:45.642Z,99490.81
2023-03-20T05:27:30.892Z,99504.34
2023-03-20T05:29:31.320Z,99501.22
2023-03-20T05:31:19.570Z,99505.16
2023-03-20T05:33:23.556Z,99501.19
2023-03-20T05:35:20.518Z,99500.69
2023-03-20T05:36:58.990Z,99497.66
2023-03-20T05:38:42.579Z,99505.97
2023-03-20T05:40:42.866Z,99504.88
2023-03-20T05:42:26.520Z,99499.34
2023-03-20T05:44:11.867Z,99506.13
2023-03-20T05:46:04.122Z,99503.16
2023-03-20T05:47:37.496Z,99506.41
2023-03-20T05:49:30.252Z,99505.56
2023-03-20T05:51:22.307Z,99490.59
2023-03-20T05:53:03.526Z,99510.50
2023-03-20T05:54:55.004Z,99503.91
2023-03-20T05:56:45.589Z,99512.50
2023-03-20T05:58:30.537Z,99508.31
2023-03-20T06:00:24.136Z,99508.84
2023-03-20T06:02:17.961Z,99508.13
2023-03-20T06:04:03.470Z,99509.00
2023-03-20T06:06:11.110Z,99502.25
2023-03-20T06:07:45.138Z,99498.94
2023-03-20T06:09:21.501Z,99495.63
2023-03-20T06:10:55.005Z,99498.06
2023-03-20T06:12:28.301Z,99495.47
2023-03-20T06:14:02.007Z,99488.94
2023-03-20T06:15:43.339Z,99496.56
2023-03-20T06:17:21.717Z,99490.44
2023-03-20T06:18:59.632Z,99485.28
2023-03-20T06:33:40.351Z,99474.84
2023-03-20T06:35:15.369Z,99481.31
2023-03-20T06:36:52.348Z,99475.72
2023-03-20T06:38:28.098Z,99482.44
2023-03-20T06:40:02.009Z,99478.53
2023-03-20T06:41:36.396Z,99477.53
2023-03-20T06:43:13.784Z,99468.22
2023-03-20T06:44:53.442Z,99473.94
2023-03-20T06:46:45.700Z,99470.84
2023-03-20T06:48:22.051Z,99480.56
2023-03-20T06:49:56.920Z,99476.59
2023-03-20T06:51:30.129Z,99468.19
2023-03-20T06:53:03.759Z,99476.13
2023-03-20T06:54:40.088Z,99473.69
2023-03-20T06:56:13.592Z,99472.69
2023-03-20T06:57:47.686Z,99475.22
2023-03-20T06:59:24.068Z,99474.66
2023-03-20T07:01:02.751Z,99479.47
2023-03-20T07:02:36.210Z,99482.19
2023-03-20T07:04:09.468Z,99473.06
2023-03-20T07:05:51.311Z,99474.00
2023-03-20T07:07:26.270Z,99471.19
2023-03-20T07:08:59.474Z,99469.69
2023-03-20T07:10:33.147Z,99465.00
2023-03-20T07:12:06.514Z,99466.72
2023-03-20T07:13:41.718Z,99467.84
2023-03-20T07:15:26.803Z,99472.00
2023-03-20T07:17:00.303Z,99464.53
2023-03-20T07:18:33.892Z,99458.13
2023-03-20T07:20:08.683Z,99462.81
2023-03-20T07:21:43.481Z,99460.31
2023-03-20T07:23:17.397Z,99461.97
2023-03-20T07:24:50.778Z,99459.03
2023-03-20T07:26:25.824Z,99454.03
2023-03-20T07:27:59.331Z,99454.38
2023-03-20T07:29:34.410Z,99453.75
2023-03-20T07:31:11.272Z,99458.34
2023-03-20T07:32:45.275Z,99454.22
2023-03-20T07:34:19.702Z,99454.56
2023-03-20T07:35:56.548Z,99456.63
2023-03-20T07:37:31.633Z,99453.22
2023-03-20T07:39:09.079Z,99461.63
2023-03-20T07:40:43.918Z,99460.69
2023-03-20T07:42:21.613Z,99467.13
2023-03-20T07:44:04.618Z,99466.44
2023-03-20T07:46:03.398Z,99465.38
2023-03-20T07:47:36.630Z,99459.56
2023-03-20T07:49:11.526Z,99468.66
2023-03-20T07:50:45.337Z,99465.91
2023-03-20T07:52:19.918Z,99460.78
2023-03-20T07:53:54.532Z,99464.22
2023-03-20T07:55:27.699Z,99464.31
2023-03-20T07:57:01.533Z,99457.44
2023-03-20T07:58:34.727Z,99453.00
2023-03-20T08:00:10.048Z,99458.28
2023-03-20T08:01:46.003Z,99462.31
2023-03-20T08:03:19.335Z,99447.56
2023-03-20T08:04:52.812Z,99450.59
2023-03-20T08:06:26.224Z,99451.31
2023-03-20T08:07:59.395Z,99441.41
2023-03-20T08:09:33.976Z,99446.53
2023-03-20T08:11:07.311Z,99447.06
2023-03-20T08:12:40.540Z,99449.41
2023-03-20T08:14:14.115Z,99439.84
2023-03-20T08:15:48.415Z,99444.03
2023-03-20T08:17:22.121Z,99436.59
2023-03-20T08:19:01.133Z,99430.31
2023-03-20T08:20:34.442Z,99443.28
2023-03-20T08:22:07.646Z,99443.44
2023-03-20T08:23:41.163Z,99441.03
2023-03-20T08:25:15.619Z,99440.69
2023-03-20T08:26:48.986Z,99436.91
2023-03-20T08:28:26.645Z,99433.25
2023-03-20T08:30:04.572Z,99429.84
2023-03-20T08:31:37.735Z,99434.25
2023-03-20T08:33:11.089Z,99433.53
2023-03-20T08:34:44.435Z,99440.41
2023-03-20T08:36:20.507Z,99428.13
2023-03-20T08:37:53.831Z,99430.53
2023-03-20T08:39:27.057Z,99428.47
2023-03-20T08:41:01.605Z,99427.81
2023-03-20T08:42:34.854Z,99420.78
2023-03-20T08:44:08.029Z,99423.59
2023-03-20T08:45:41.449Z,99422.72
2023-03-20T08:47:14.661Z,99423.84
2023-03-20T08:48:48.079Z,99433.28
2023-03-20T08:50:21.238Z,99432.31
2023-03-20T08:51:54.517Z,99428.22
2023-03-20T08:53:27.731Z,99423.66
2023-03-20T08:55:02.120Z,99426.72
2023-03-20T08:56:36.769Z,99422.91
2023-03-20T08:58:09.942Z,99416.41
2023-03-20T08:59:43.060Z,99416.00
2023-03-20T09:01:16.529Z,99421.19
2023-03-20T09:02:49.696Z,99417.78
2023-03-20T09:04:23.016Z,99427.25
2023-03-20T09:05:56.113Z,99418.47
2023-03-20T09:07:29.548Z,99419.50
2023-03-20T09:09:03.782Z,99414.66
2023-03-20T09:10:36.961Z,99410.34
2023-03-20T09:12:11.447Z,99409.38
2023-03-20T09:13:44.749Z,99404.38
2023-03-20T09:15:18.033Z,99395.69
2023-03-20T09:16:51.478Z,99390.72
2023-03-20T09:18:25.444Z,99388.81
2023-03-20T09:19:58.764Z,99394.34
2023-03-20T09:21:31.867Z,99392.63
2023-03-20T09:23:05.003Z,99397.34
2023-03-20T09:24:38.365Z,99393.53
2023-03-20T09:26:11.629Z,99390.47
2023-03-20T09:27:46.611Z,99391.72
2023-03-20T09:29:19.906Z,99387.44
2023-03-20T09:30:57.083Z,99384.00
2023-03-20T09:32:30.698Z,99386.09
2023-03-20T09:34:03.936Z,99390.00
2023-03-20T09:35:37.750Z,99379.22
2023-03-20T09:37:11.130Z,99379.94
2023-03-20T09:38:44.553Z,99374.06
2023-03-20T09:40:27.111Z,99373.16
2023-03-20T09:42:06.176Z,99367.59
2023-03-20T09:44:02.417Z,99363.81
2023-03-20T09:45:44.929Z,99359.84
2023-03-20T09:47:24.806Z,99357.31
2023-03-20T09:49:08.836Z,99352.94
2023-03-20T09:50:50.402Z,99357.28
2023-03-20T09:52:27.941Z,99330.91
2023-03-20T09:54:05.523Z,99344.84
2023-03-20T09:55:41.756Z,99335.72
2023-03-20T09:57:21.735Z,99332.94
2023-03-20T09:58:58.508Z,99335.00
2023-03-20T10:00:35.944Z,99338.16
2023-03-20T10:02:17.335Z,99330.81
2023-03-20T10:03:55.447Z,99333.28
2023-03-20T10:05:31.224Z,99321.72
2023-03-20T10:07:07.156Z,99320.34
2023-03-20T10:08:43.090Z,99326.09
2023-03-20T10:10:20.494Z,99326.09
2023-03-20T10:12:24.646Z,99323.41
2023-03-20T10:14:08.573Z,99314.97
2023-03-20T10:15:48.108Z,99319.25
2023-03-20T10:17:34.727Z,99311.19
2023-03-20T10:19:17.548Z,99316.31
2023-03-20T10:20:58.113Z,99312.78
2023-03-20T10:22:35.924Z,99314.72
2023-03-20T10:24:19.661Z,99314.47
2023-03-20T10:25:57.694Z,99313.88
2023-03-20T10:27:36.375Z,99310.06
2023-03-20T10:29:21.578Z,99307.97
2023-03-20T10:31:06.731Z,99294.69
2023-03-20T10:32:47.275Z,99298.25
2023-03-20T10:34:34.255Z,99297.84
2023-03-20T10:36:23.243Z,99289.56
2023-03-20T10:38:14.822Z,99291.03
2023-03-20T10:39:56.360Z,99279.19
2023-03-20T10:41:33.510Z,99282.75
2023-03-20T10:43:16.116Z,99283.28
2023-03-20T10:44:54.892Z,99280.81
2023-03-20T10:46:31.757Z,99272.94
2023-03-20T10:48:14.063Z,99268.44
2023-03-20T10:49:51.837Z,99275.16
2023-03-20T10:51:32.938Z,99263.84
2023-03-20T10:53:07.889Z,99261.03
2023-03-20T10:54:44.093Z,99261.44
2023-03-20T10:56:24.472Z,99253.78
2023-03-20T10:58:03.333Z,99251.56
2023-03-20T10:59:41.863Z,99250.31
2023-03-20T11:01:17.401Z,99247.88
2023-03-20T11:02:50.945Z,99243.59
2023-03-20T11:04:24.229Z,99247.81
2023-03-20T11:06:09.597Z,99243.59
2023-03-20T11:07:43.838Z,99242.09
2023-03-20T11:09:20.917Z,99233.56
2023-03-20T11:11:02.009Z,99226.34
2023-03-20T11:12:36.868Z,99227.91
2023-03-20T11:14:18.723Z,99219.31
2023-03-20T11:15:54.163Z,99227.03
2023-03-20T11:17:30.281Z,99229.19
2023-03-20T11:19:08.569Z,99215.44
2023-03-20T11:20:47.445Z,99222.81
2023-03-20T11:22:26.822Z,99220.47
2023-03-20T11:24:00.418Z,99213.81
2023-03-20T11:25:36.015Z,99207.28
2023-03-20T11:27:11.342Z,99204.91
2023-03-20T11:28:49.734Z,99193.84
2023-03-20T11:30:23.206Z,99203.84
2023-03-20T11:32:04.892Z,99196.78
2023-03-20T11:33:42.322Z,99198.38
2023-03-20T11:35:22.690Z,99189.56
2023-03-20T11:37:13.338Z,99187.16
2023-03-20T11:38:47.592Z,99183.75
2023-03-20T11:40:25.067Z,99182.06
2023-03-20T11:42:00.344Z,99182.63
2023-03-20T11:43:39.413Z,99172.09
2023-03-20T11:45:18.096Z,99170.94
2023-03-20T11:46:57.657Z,99169.25
2023-03-20T11:48:40.922Z,99175.94
2023-03-20T11:50:31.399Z,99177.47
2023-03-20T11:52:13.957Z,99177.66
2023-03-20T11:54:01.686Z,99174.47
2023-03-20T11:55:36.623Z,99171.75
2023-03-20T11:57:32.252Z,99171.91
2023-03-20T11:59:14.522Z,99164.00
2023-03-20T12:00:52.265Z,99159.97
2023-03-20T12:02:27.114Z,99155.84
2023-03-20T12:04:06.090Z,99164.91
2023-03-20T12:05:39.921Z,99165.22
2023-03-20T12:07:17.937Z,99152.00
2023-03-20T12:08:59.007Z,99159.97
2023-03-20T12:10:39.636Z,99158.53
2023-03-20T12:12:24.802Z,99157.63
2023-03-20T12:14:01.605Z,99152.78
2023-03-20T12:15:38.929Z,99159.84
2023-03-20T12:17:36.313Z,99159.88
2023-03-20T12:19:18.231Z,99157.63
2023-03-20T12:21:01.032Z,99168.06
2023-03-20T12:22:39.308Z,99170.78
2023-03-20T12:24:16.666Z,99175.78
2023-03-20T12:25:55.277Z,99171.66
2023-03-20T12:27:34.852Z,99169.91
2023-03-20T12:29:17.754Z,99163.34
2023-03-20T12:31:02.177Z,99169.91
2023-03-20T12:32:41.831Z,99156.84
2023-03-20T12:34:23.233Z,99156.84
2023-03-20T12:35:59.484Z,99158.78
2023-03-20T12:37:33.738Z,99151.97
2023-03-20T12:39:12.527Z,99158.22
2023-03-20T12:40:47.264Z,99151.84
2023-03-20T12:42:34.109Z,99156.75
2023-03-20T12:44:32.397Z,99153.56
2023-03-20T12:46:14.353Z,99155.28
2023-03-20T12:48:01.955Z,99152.13
2023-03-20T12:49:49.042Z,99154.44
2023-03-20T12:51:42.454Z,99147.66
2023-03-20T12:53:37.571Z,99146.25
2023-03-20T12:55:27.044Z,99146.13
2023-03-20T12:57:09.940Z,99146.84
2023-03-20T12:58:48.653Z,99142.03
2023-03-20T13:00:31.028Z,99130.66
2023-03-20T13:02:19.223Z,99120.88
2023-03-20T13:04:16.328Z,99125.09
2023-03-20T13:05:57.201Z,99128.91
2023-03-20T13:07:52.529Z,99118.97
2023-03-20T13:09:44.745Z,99121.22
2023-03-20T13:11:29.727Z,99122.91
2023-03-20T13:13:15.684Z,99118.00
2023-03-20T13:14:56.309Z,99116.72
2023-03-20T13:16:41.741Z,99124.56
2023-03-20T13:18:20.808Z,99121.56
2023-03-20T13:20:08.676Z,99107.78
2023-03-20T13:21:54.039Z,99114.66
2023-03-20T13:23:36.465Z,99111.94
2023-03-20T13:25:24.542Z,99116.81
2023-03-20T13:27:04.425Z,99106.00
2023-03-20T13:28:48.556Z,99104.31
2023-03-20T13:30:31.252Z,99090.84
2023-03-20T13:32:15.801Z,99104.91
2023-03-20T13:33:53.971Z,99107.44
2023-03-20T13:35:41.163Z,99096.09
2023-03-20T13:37:24.375Z,99098.81
2023-03-20T13:39:05.015Z,99102.09
2023-03-20T13:40:43.629Z,99100.00
2023-03-20T13:42:22.689Z,99101.56
2023-03-20T13:44:01.348Z,99095.03
2023-03-20T13:45:38.516Z,99097.59
2023-03-20T13:47:14.927Z,99102.09
2023-03-20T13:48:48.223Z,99108.34
2023-03-20T13:50:33.164Z,99092.16
2023-03-20T13:52:12.222Z,99091.56
2023-03-20T13:53:57.211Z,99094.13
2023-03-20T13:55:38.964Z,99098.13
2023-03-20T13:57:23.748Z,99080.78
2023-03-20T13:59:12.456Z,99085.63
2023-03-20T14:00:53.082Z,99087.00
2023-03-20T14:02:36.841Z,99081.59
2023-03-20T14:30:32.580Z,99073.84
2023-03-20T14:32:31.320Z,99078.38
2023-03-20T14:34:17.960Z,99068.47
2023-03-20T14:35:53.056Z,99063.06
2023-03-20T14:37:32.379Z,99066.78
2023-03-20T14:39:16.740Z,99050.31
2023-03-20T14:40:57.925Z,99061.41
2023-03-20T14:42:40.407Z,99060.28
2023-03-20T14:44:32.192Z,99055.31
2023-03-20T14:46:10.552Z,99056.44
2023-03-20T14:47:54.218Z,99044.94
2023-03-20T14:49:49.385Z,99048.31
2023-03-20T14:51:30.065Z,99052.28
2023-03-20T14:53:15.280Z,99054.56
2023-03-20T14:54:54.238Z,99048.03
2023-03-20T14:56:30.834Z,99054.25
2023-03-20T14:58:06.626Z,99049.69
2023-03-20T14:59:39.815Z,99042.13
2023-03-20T15:01:19.838Z,99051.66
2023-03-20T15:03:03.793Z,99046.56
2023-03-20T15:04:39.550Z,99054.16
2023-03-20T15:06:13.444Z,99048.25
2023-03-20T15:07:46.632Z,99037.91
2023-03-20T15:09:23.626Z,99043.78
2023-03-20T15:11:00.184Z,99034.97
2023-03-20T15:12:37.440Z,99044.53
2023-03-20T15:14:12.288Z,99042.97
2023-03-20T15:15:55.006Z,99040.44
2023-03-20T15:17:35.692Z,99049.78
2023-03-20T15:19:19.470Z,99046.69
2023-03-20T15:20:52.706Z,99040.88
2023-03-20T15:22:25.943Z,99041.59
2023-03-20T15:23:59.895Z,99044.16
2023-03-20T15:25:40.145Z,99035.13
2023-03-20T15:27:16.625Z,99044.22
2023-03-20T15:28:51.268Z,99043.63
2023-03-20T15:30:25.356Z,99045.03
2023-03-20T15:32:13.536Z,99045.34
2023-03-20T15:33:47.452Z,99044.50
2023-03-20T15:35:24.384Z,99045.31
2023-03-20T15:36:58.999Z,99046.19
2023-03-20T15:38:35.730Z,99034.25
2023-03-20T15:40:15.045Z,99046.19
2023-03-20T15:41:53.154Z,99049.63
2023-03-20T15:43:27.870Z,99042.09
2023-03-20T15:45:01.331Z,99041.66
2023-03-20T15:46:34.498Z,99036.97
2023-03-20T15:48:09.327Z,99039.94
2023-03-20T15:49:43.294Z,99040.53
2023-03-20T15:51:20.142Z,99040.38
2023-03-20T15:52:53.895Z,99040.75
2023-03-20T15:54:28.094Z,99036.75
2023-03-20T15:56:17.353Z,99038.44
2023-03-20T15:57:54.105Z,99036.22
2023-03-20T15:59:30.712Z,99035.94
2023-03-20T16:01:07.265Z,99045.44
2023-03-20T16:02:41.306Z,99041.66
2023-03-20T16:04:18.413Z,99035.81
2023-03-20T16:05:53.647Z,99037.38
2023-03-20T16:07:31.798Z,99042.09
2023-03-20T16:09:09.401Z,99045.09
2023-03-20T16:10:44.219Z,99047.00
2023-03-20T16:12:18.860Z,99043.72
2023-03-20T16:13:53.262Z,99045.69
2023-03-20T16:15:31.437Z,99043.97
2023-03-20T16:17:06.277Z,99054.03
2023-03-20T16:18:41.752Z,99045.09
2023-03-20T16:20:16.887Z,99044.13
2023-03-20T16:21:53.453Z,99045.75
2023-03-20T16:23:35.003Z,99049.25
2023-03-20T16:25:15.597Z,99047.63
2023-03-20T16:26:52.272Z,99050.31
2023-03-20T16:28:27.215Z,99042.47
2023-03-20T16:30:01.052Z,99049.53
2023-03-20T16:31:36.357Z,99056.56
2023-03-20T16:33:15.505Z,99045.69
2023-03-20T16:34:52.373Z,99049.19
2023-03-20T16:36:31.508Z,99048.19
2023-03-20T16:38:16.699Z,99049.69
2023-03-20T16:40:04.811Z,99048.88
2023-03-20T16:41:40.197Z,99058.38
2023-03-20T16:43:17.417Z,99051.88
2023-03-20T16:44:56.606Z,99060.56
2023-03-20T16:46:30.021Z,99049.66
2023-03-20T16:48:25.442Z,99059.13
2023-03-20T16:50:22.605Z,99061.94
2023-03-20T16:51:59.724Z,99051.56
2023-03-20T16:53:42.065Z,99065.00
2023-03-20T16:55:19.581Z,99067.53
2023-03-20T16:56:55.158Z,99077.38
2023-03-20T16:58:33.174Z,99065.28
2023-03-20T17:00:20.997Z,99066.03
2023-03-20T17:01:59.796Z,99068.41
2023-03-20T17:03:38.302Z,99073.31
2023-03-20T17:05:14.421Z,99069.97
2023-03-20T17:06:49.788Z,99072.13
2023-03-20T17:08:32.341Z,99075.19
2023-03-20T17:10:21.783Z,99066.84
2023-03-20T17:12:02.727Z,99070.84
2023-03-20T17:13:36.021Z,99067.66
2023-03-20T17:15:11.011Z,99074.38
2023-03-20T17:16:44.329Z,99064.28
2023-03-20T17:18:17.793Z,99069.84
2023-03-20T17:19:51.921Z,99071.41
2023-03-20T17:21:25.149Z,99070.00
2023-03-20T17:22:58.904Z,99074.13
2023-03-20T17:24:32.090Z,99055.47
2023-03-20T17:26:12.148Z,99072.16
2023-03-20T17:27:45.855Z,99083.31
2023-03-20T17:29:19.069Z,99080.00
2023-03-20T17:30:53.318Z,99076.97
2023-03-20T17:32:26.725Z,99080.13
2023-03-20T17:33:59.852Z,99086.81
2023-03-20T17:35:33.092Z,99071.34
2023-03-20T17:37:07.704Z,99080.59
2023-03-20T17:38:41.242Z,99087.00
2023-03-20T17:40:19.224Z,99082.22
2023-03-20T17:41:53.811Z,99082.19
2023-03-20T17:43:26.927Z,99088.56
2023-03-20T17:45:00.976Z,99087.34
2023-03-20T17:46:49.789Z,99092.94
2023-03-20T17:48:28.824Z,99099.50
2023-03-20T17:50:02.092Z,99085.00
2023-03-20T17:51:36.740Z,99082.69
2023-03-20T17:53:16.125Z,99086.00
2023-03-20T17:54:49.792Z,99089.47
2023-03-20T17:56:23.458Z,99093.91
2023-03-20T17:57:57.946Z,99090.84
2023-03-20T17:59:31.458Z,99091.97
2023-03-20T18:01:07.287Z,99093.09
2023-03-20T18:02:40.910Z,99092.63
2023-03-20T18:04:14.080Z,99098.84
2023-03-20T18:05:49.036Z,99087.78
2023-03-20T18:07:23.202Z,99096.75
2023-03-20T18:08:57.760Z,99094.34
2023-03-20T18:10:33.042Z,99097.44
2023-03-20T18:12:06.845Z,99102.06
2023-03-20T18:13:42.077Z,99106.72
2023-03-20T18:15:15.382Z,99088.78
2023-03-20T18:16:48.542Z,99098.47
2023-03-20T18:18:23.958Z,99095.56
2023-03-20T18:19:57.606Z,99101.63
2023-03-20T18:21:31.069Z,99103.47
2023-03-20T18:23:04.432Z,99097.44
2023-03-20T18:24:39.910Z,99101.22
2023-03-20T18:26:20.821Z,99092.03
2023-03-20T18:27:54.505Z,99097.44
2023-03-20T18:29:29.407Z,99098.63
2023-03-20T18:31:02.700Z,99102.41
2023-03-20T18:32:36.382Z,99088.00
2023-03-20T18:34:09.620Z,99101.81
2023-03-20T18:35:43.021Z,99085.88
2023-03-20T18:37:16.231Z,99094.88
2023-03-20T18:38:50.049Z,99100.13
2023-03-20T18:40:26.091Z,99104.19
2023-03-20T18:41:59.245Z,99104.69
2023-03-20T18:43:32.478Z,99112.03
2023-03-20T18:45:08.734Z,99115.06
2023-03-20T18:46:42.527Z,99119.69
2023-03-20T18:48:16.425Z,99114.81
2023-03-20T18:49:49.628Z,99105.22
2023-03-20T18:51:23.572Z,99105.50
2023-03-20T18:52:58.322Z,99104.09
2023-03-20T18:54:31.461Z,99098.25
2023-03-20T18:56:05.465Z,99103.63
2023-03-20T18:57:43.083Z,99100.13
2023-03-20T18:59:16.542Z,99109.19
2023-03-20T19:00:50.900Z,99106.22
2023-03-20T19:02:24.070Z,99110.59
2023-03-20T19:03:57.736Z,99108.72
2023-03-20T19:05:31.625Z,99104.56
2023-03-20T19:07:04.991Z,99104.88
2023-03-20T19:08:38.926Z,99101.50
2023-03-20T19:10:29.504Z,99108.47
2023-03-20T19:12:02.622Z,99105.47
2023-03-20T19:13:36.230Z,99101.59
2023-03-20T19:15:10.735Z,99097.72
2023-03-20T19:16:46.004Z,99108.50
2023-03-20T19:18:21.145Z,99099.00
2023-03-20T19:19:54.301Z,99101.56
2023-03-20T19:21:27.499Z,99100.97
2023-03-20T19:23:00.544Z,99100.56
2023-03-20T19:24:33.680Z,99089.38
2023-03-20T19:26:14.189Z,99097.50
2023-03-20T19:27:47.501Z,99094.56
2023-03-20T19:29:20.949Z,99092.84
2023-03-20T19:30:55.381Z,99098.25
2023-03-20T19:32:29.983Z,99086.69
2023-03-20T19:34:03.480Z,99092.16
2023-03-20T19:36:01.759Z,99094.88
2023-03-20T19:37:30.598Z,99100.78
2023-03-20T19:39:06.408Z,99100.78
2023-03-20T19:40:43.298Z,99109.56
2023-03-20T19:42:47.515Z,99102.63
2023-03-20T19:44:10.052Z,99101.03
2023-03-20T19:45:44.559Z,99101.28
2023-03-20T19:47:17.710Z,99099.81
2023-03-20T19:48:53.629Z,99089.25
2023-03-20T19:50:34.028Z,99101.56
2023-03-20T19:52:12.925Z,99101.69
2023-03-20T19:53:47.147Z,99099.16
2023-03-20T19:55:19.354Z,99096.66
2023-03-20T19:56:52.611Z,99099.63
2023-03-20T19:58:26.304Z,99092.81